createdAt,value
2022-11-15T00:01:38.105Z,6.90
2022-11-15T00:04:24.766Z,6.90
2022-11-15T00:07:17.897Z,6.90
2022-11-15T00:10:14.149Z,6.80
2022-11-15T00:13:01.932Z,6.80
2022-11-15T00:15:48.809Z,6.90
2022-11-15T00:18:35.705Z,6.90
2022-11-15T00:21:22.429Z,6.90
2022-11-15T00:24:09.435Z,6.70
2022-11-15T00:26:56.468Z,6.70
2022-11-15T00:29:44.309Z,6.70
2022-11-15T00:32:34.175Z,6.90
2022-11-15T00:35:20.973Z,6.70
2022-11-15T00:38:07.755Z,6.70
2022-11-15T00:40:54.505Z,6.90
2022-11-15T00:43:43.231Z,7.00
2022-11-15T00:46:30.035Z,7.00
2022-11-15T00:49:17.038Z,6.70
2022-11-15T00:52:03.910Z,6.70
2022-11-15T00:54:50.650Z,6.40
2022-11-15T00:57:37.622Z,6.40
2022-11-15T01:00:24.417Z,6.60
2022-11-15T01:03:11.313Z,6.50
2022-11-15T01:05:59.950Z,6.50
2022-11-15T01:08:46.648Z,6.70
2022-11-15T01:11:34.647Z,6.50
2022-11-15T01:14:25.210Z,6.60
2022-11-15T01:17:12.270Z,6.40
2022-11-15T01:19:59.012Z,6.40
2022-11-15T01:22:45.789Z,6.70
2022-11-15T01:25:32.495Z,6.70
2022-11-15T01:28:19.184Z,6.90
2022-11-15T01:31:07.753Z,7.00
2022-11-15T01:33:54.634Z,6.90
2022-11-15T01:36:41.380Z,6.70
2022-11-15T01:39:28.020Z,6.80
2022-11-15T01:42:14.800Z,6.60
2022-11-15T01:45:01.718Z,6.70
2022-11-15T01:47:53.237Z,6.80
2022-11-15T01:50:40.213Z,7.20
2022-11-15T01:53:27.161Z,6.90
2022-11-15T01:56:16.749Z,6.90
2022-11-15T01:59:05.499Z,7.20
2022-11-15T02:01:52.262Z,7.00
2022-11-15T02:04:41.512Z,7.10
2022-11-15T02:07:29.412Z,7.00
2022-11-15T02:10:20.753Z,6.90
2022-11-15T02:13:07.460Z,6.60
2022-11-15T02:16:04.923Z,6.60
2022-11-15T02:19:18.133Z,6.70
2022-11-15T02:22:17.086Z,6.80
2022-11-15T02:25:22.636Z,6.80
2022-11-15T02:28:28.383Z,6.80
2022-11-15T02:31:17.580Z,6.90
2022-11-15T02:34:09.699Z,7.30
2022-11-15T02:36:59.468Z,7.00
2022-11-15T02:40:04.802Z,7.00
2022-11-15T02:43:17.088Z,7.00
2022-11-15T02:46:14.284Z,6.90
2022-11-15T02:49:00.930Z,6.90
2022-11-15T02:51:48.619Z,6.90
2022-11-15T02:54:35.473Z,6.90
2022-11-15T02:57:29.795Z,7.10
2022-11-15T03:00:20.480Z,7.20
2022-11-15T03:03:07.211Z,7.10
2022-11-15T03:05:57.009Z,7.30
2022-11-15T03:08:43.813Z,7.30
2022-11-15T03:11:32.378Z,7.30
2022-11-15T03:14:25.265Z,7.10
2022-11-15T03:17:18.061Z,7.10
2022-11-15T03:20:06.926Z,7.00
2022-11-15T03:22:54.522Z,7.00
2022-11-15T03:25:46.489Z,6.90
2022-11-15T03:28:36.992Z,6.80
2022-11-15T03:31:49.606Z,7.00
2022-11-15T03:34:40.602Z,7.10
2022-11-15T03:37:33.707Z,7.00
2022-11-15T03:40:22.904Z,7.10
2022-11-15T03:43:33.310Z,7.30
2022-11-15T03:46:26.367Z,7.30
2022-11-15T03:49:16.455Z,7.40
2022-11-15T03:52:04.527Z,7.60
2022-11-15T03:54:54.942Z,7.50
2022-11-15T03:57:41.933Z,7.60
2022-11-15T04:00:29.079Z,7.80
2022-11-15T04:03:15.760Z,8.00
2022-11-15T04:06:02.644Z,7.80
2022-11-15T04:08:49.348Z,7.80
2022-11-15T04:11:36.326Z,7.60
2022-11-15T04:14:23.210Z,7.60
2022-11-15T04:17:09.936Z,7.40
2022-11-15T04:20:15.573Z,8.00
2022-11-15T04:23:22.015Z,7.30
2022-11-15T04:26:26.707Z,7.80
2022-11-15T04:29:32.400Z,7.30
2022-11-15T04:32:19.200Z,7.20
2022-11-15T04:35:06.003Z,7.10
2022-11-15T04:37:52.716Z,7.30
2022-11-15T04:40:39.604Z,7.10
2022-11-15T04:43:26.646Z,7.40
2022-11-15T04:46:13.535Z,7.30
2022-11-15T04:49:01.418Z,7.40
2022-11-15T04:51:48.163Z,7.50
2022-11-15T04:54:34.957Z,7.60
2022-11-15T04:57:21.790Z,7.60
2022-11-15T05:00:10.015Z,7.30
2022-11-15T05:03:15.977Z,7.40
2022-11-15T05:06:03.107Z,7.50
2022-11-15T05:08:49.916Z,7.70
2022-11-15T05:11:36.745Z,7.80
2022-11-15T05:14:23.551Z,7.80
2022-11-15T05:17:10.250Z,7.70
2022-11-15T05:19:59.462Z,7.70
2022-11-15T05:22:46.271Z,7.60
2022-11-15T05:25:33.113Z,7.80
2022-11-15T05:28:20.099Z,7.80
2022-11-15T05:31:11.618Z,8.20
2022-11-15T05:33:59.560Z,7.60
2022-11-15T05:36:46.883Z,8.20
2022-11-15T05:39:33.727Z,7.70
2022-11-15T05:42:20.701Z,7.80
2022-11-15T05:45:08.785Z,7.90
2022-11-15T05:47:57.919Z,7.70
2022-11-15T05:50:47.296Z,7.90
2022-11-15T05:53:34.507Z,8.10
2022-11-15T05:56:21.380Z,7.80
2022-11-15T05:59:09.808Z,7.60
2022-11-15T06:01:56.710Z,7.60
2022-11-15T06:04:43.466Z,7.70
2022-11-15T06:07:31.137Z,7.80
2022-11-15T06:10:19.939Z,7.30
2022-11-15T06:13:06.763Z,7.90
2022-11-15T06:15:56.205Z,7.50
2022-11-15T06:18:43.006Z,7.70
2022-11-15T06:21:30.238Z,7.50
2022-11-15T06:24:19.255Z,7.40
2022-11-15T06:27:06.162Z,7.20
2022-11-15T06:29:52.868Z,7.40
2022-11-15T06:32:39.861Z,7.40
2022-11-15T06:35:26.605Z,7.50
2022-11-15T06:38:13.356Z,7.30
2022-11-15T06:41:05.424Z,7.50
2022-11-15T06:43:52.236Z,7.30
2022-11-15T06:46:38.935Z,7.40
2022-11-15T06:49:25.665Z,7.50
2022-11-15T06:52:12.400Z,7.80
2022-11-15T06:54:59.335Z,7.40
2022-11-15T06:57:49.917Z,7.60
2022-11-15T07:00:36.667Z,7.40
2022-11-15T07:03:23.551Z,7.50
2022-11-15T07:06:11.148Z,7.80
2022-11-15T07:08:57.835Z,7.80
2022-11-15T07:11:44.821Z,7.60
2022-11-15T07:14:31.550Z,7.70
2022-11-15T07:17:18.320Z,8.00
2022-11-15T07:20:05.254Z,7.90
2022-11-15T07:22:52.007Z,7.80
2022-11-15T07:25:38.708Z,7.80
2022-11-15T07:28:28.874Z,8.10
2022-11-15T07:31:15.733Z,8.20
2022-11-15T07:34:02.523Z,8.20
2022-11-15T07:36:56.372Z,7.80
2022-11-15T07:39:43.037Z,7.90
2022-11-15T07:42:50.742Z,8.00
2022-11-15T07:45:41.760Z,8.10
2022-11-15T07:48:42.256Z,8.00
2022-11-15T07:51:29.883Z,7.70
2022-11-15T07:54:16.539Z,8.00
2022-11-15T07:57:07.316Z,8.00
2022-11-15T07:59:54.866Z,8.00
2022-11-15T08:02:41.905Z,8.00
2022-11-15T08:05:28.581Z,8.10
2022-11-15T08:08:15.262Z,8.20
2022-11-15T08:11:01.900Z,8.30
2022-11-15T08:13:50.369Z,8.30
2022-11-15T08:16:36.991Z,8.30
2022-11-15T08:19:23.640Z,8.30
2022-11-15T08:22:10.255Z,8.40
2022-11-15T08:24:56.885Z,8.40
2022-11-15T08:27:43.518Z,8.50
2022-11-15T08:30:30.829Z,8.60
2022-11-15T08:33:17.431Z,8.70
2022-11-15T08:36:04.271Z,8.80
2022-11-15T08:38:50.909Z,8.80
2022-11-15T08:41:38.196Z,8.80
2022-11-15T08:44:25.087Z,8.80
2022-11-15T08:47:13.130Z,9.00
2022-11-15T08:49:59.750Z,9.00
2022-11-15T08:52:46.728Z,9.20
2022-11-15T08:55:33.721Z,9.30
2022-11-15T08:58:20.354Z,9.40
2022-11-15T09:01:07.542Z,9.50
2022-11-15T09:03:54.731Z,9.60
2022-11-15T09:06:43.374Z,9.60
2022-11-15T09:09:30.133Z,9.60
2022-11-15T09:12:16.832Z,9.60
2022-11-15T09:15:04.265Z,9.60
2022-11-15T09:17:50.879Z,9.60
2022-11-15T09:20:37.570Z,9.70
2022-11-15T09:23:24.707Z,9.90
2022-11-15T09:26:11.444Z,10.10
2022-11-15T09:28:58.088Z,10.30
2022-11-15T09:31:44.849Z,10.30
2022-11-15T09:34:31.466Z,10.50
2022-11-15T09:37:18.316Z,10.60
2022-11-15T09:40:05.143Z,10.70
2022-11-15T09:42:57.902Z,10.60
2022-11-15T09:45:47.582Z,10.50
2022-11-15T09:48:54.636Z,10.50
2022-11-15T09:51:48.650Z,10.60
2022-11-15T09:54:52.652Z,10.60
2022-11-15T09:57:42.834Z,10.70
2022-11-15T10:00:50.133Z,10.70
2022-11-15T10:03:39.124Z,10.60
2022-11-15T10:06:27.072Z,10.60
2022-11-15T10:09:18.936Z,10.70
2022-11-15T10:12:10.669Z,10.80
2022-11-15T10:15:02.147Z,10.90
2022-11-15T10:17:51.947Z,11.10
2022-11-15T10:20:47.727Z,11.40
2022-11-15T10:23:34.366Z,11.60
2022-11-15T10:26:21.946Z,11.70
2022-11-15T10:29:10.348Z,11.70
2022-11-15T10:31:57.039Z,11.80
2022-11-15T10:34:44.254Z,11.80
2022-11-15T10:37:32.001Z,11.90
2022-11-15T10:40:22.886Z,12.00
2022-11-15T10:43:15.550Z,12.20
2022-11-15T10:46:44.962Z,12.30
2022-11-15T10:49:32.173Z,12.10
2022-11-15T10:52:20.372Z,11.80
2022-11-15T10:55:13.048Z,11.70
2022-11-15T10:58:07.856Z,11.70
2022-11-15T11:00:54.873Z,11.60
2022-11-15T11:03:42.469Z,11.50
2022-11-15T11:06:29.624Z,11.40
2022-11-15T11:09:34.661Z,11.30
2022-11-15T11:12:27.787Z,11.30
2022-11-15T11:15:16.193Z,11.40
2022-11-15T11:18:10.190Z,11.40
2022-11-15T11:20:59.798Z,11.20
2022-11-15T11:23:52.888Z,11.10
2022-11-15T11:26:39.504Z,11.00
2022-11-15T11:29:44.473Z,11.00
2022-11-15T11:32:34.226Z,10.90
2022-11-15T11:35:23.590Z,10.80
2022-11-15T11:38:19.493Z,10.90
2022-11-15T11:41:24.991Z,10.70
2022-11-15T11:44:11.621Z,10.70
2022-11-15T11:47:19.553Z,10.70
2022-11-15T11:50:14.316Z,10.70
2022-11-15T11:53:04.640Z,10.70
2022-11-15T11:55:53.936Z,10.70
2022-11-15T11:58:42.641Z,10.70
2022-11-15T12:01:47.606Z,10.70
2022-11-15T12:04:37.822Z,10.80
2022-11-15T12:07:26.502Z,10.90
2022-11-15T12:10:16.350Z,10.90
2022-11-15T12:13:11.154Z,10.90
2022-11-15T12:16:02.131Z,11.00
2022-11-15T12:18:53.594Z,11.10
2022-11-15T12:21:40.346Z,11.10
2022-11-15T12:24:40.389Z,11.20
2022-11-15T12:27:33.194Z,11.20
2022-11-15T12:30:21.577Z,11.10
2022-11-15T12:33:28.158Z,11.20
2022-11-15T12:36:21.105Z,11.30
2022-11-15T12:39:14.925Z,11.20
2022-11-15T12:42:01.540Z,11.20
2022-11-15T12:44:48.161Z,11.20
2022-11-15T12:47:34.817Z,11.20
2022-11-15T12:50:41.726Z,11.20
2022-11-15T12:53:33.196Z,11.30
2022-11-15T12:56:21.521Z,11.30
2022-11-15T12:59:08.285Z,11.40
2022-11-15T13:01:57.327Z,11.30
2022-11-15T13:04:43.981Z,11.30
2022-11-15T13:07:36.991Z,11.40
2022-11-15T13:10:28.158Z,11.40
2022-11-15T13:13:34.942Z,11.60
2022-11-15T13:16:21.675Z,11.60
2022-11-15T13:19:10.852Z,11.60
2022-11-15T13:22:16.189Z,11.70
2022-11-15T13:25:03.112Z,11.70
2022-11-15T13:27:50.342Z,11.70
2022-11-15T13:30:37.715Z,11.70
2022-11-15T13:33:25.881Z,11.50
2022-11-15T13:36:19.488Z,11.20
2022-11-15T13:39:07.497Z,11.00
2022-11-15T13:41:54.529Z,10.90
2022-11-15T13:44:54.912Z,10.80
2022-11-15T13:47:41.503Z,10.80
2022-11-15T13:50:30.667Z,10.60
2022-11-15T13:53:17.304Z,10.50
2022-11-15T13:56:04.670Z,10.60
2022-11-15T13:58:51.346Z,10.50
2022-11-15T14:01:38.321Z,10.50
2022-11-15T14:04:26.323Z,10.40
2022-11-15T14:07:17.630Z,10.50
2022-11-15T14:10:22.947Z,10.50
2022-11-15T14:13:29.428Z,10.60
2022-11-15T14:16:20.538Z,10.70
2022-11-15T14:19:10.420Z,10.60
2022-11-15T14:22:12.340Z,10.70
2022-11-15T14:25:14.287Z,10.70
2022-11-15T14:28:10.088Z,10.60
2022-11-15T14:30:58.151Z,10.50
2022-11-15T14:33:45.094Z,10.50
2022-11-15T14:36:31.811Z,10.50
2022-11-15T14:39:18.521Z,10.60
2022-11-15T14:42:06.682Z,10.50
2022-11-15T14:44:53.576Z,10.50
2022-11-15T14:47:40.227Z,10.60
2022-11-15T14:50:28.736Z,10.30
2022-11-15T14:53:16.668Z,10.20
2022-11-15T14:56:03.596Z,10.20
2022-11-15T14:58:50.314Z,10.10
2022-11-15T15:01:36.945Z,10.10
2022-11-15T15:04:23.661Z,10.00
2022-11-15T15:07:10.439Z,10.00
2022-11-15T15:10:24.473Z,10.10
2022-11-15T15:13:05.262Z,10.10
2022-11-15T15:15:52.663Z,10.10
2022-11-15T15:18:39.475Z,10.10
2022-11-15T15:21:33.705Z,10.00
2022-11-15T15:24:23.298Z,10.00
2022-11-15T15:27:10.127Z,10.00
2022-11-15T15:29:56.793Z,10.00
2022-11-15T15:32:43.459Z,10.00
2022-11-15T15:35:31.783Z,10.10
2022-11-15T15:38:18.493Z,10.00
2022-11-15T15:41:05.164Z,9.90
2022-11-15T15:43:51.853Z,9.80
2022-11-15T15:46:38.526Z,9.80
2022-11-15T15:49:25.185Z,9.80
2022-11-15T15:52:12.593Z,9.80
2022-11-15T15:54:59.254Z,9.80
2022-11-15T15:57:45.977Z,9.90
2022-11-15T16:00:35.629Z,9.90
2022-11-15T16:03:23.276Z,9.80
2022-11-15T16:06:28.861Z,9.80
2022-11-15T16:09:17.316Z,9.90
2022-11-15T16:12:04.448Z,9.80
2022-11-15T16:14:51.118Z,9.80
2022-11-15T16:17:43.187Z,9.80
2022-11-15T16:20:29.818Z,9.80
2022-11-15T16:23:18.054Z,9.80
2022-11-15T16:26:21.629Z,9.80
2022-11-15T16:29:10.254Z,9.80
2022-11-15T16:31:57.050Z,9.80
2022-11-15T16:34:48.549Z,9.80
2022-11-15T16:37:35.803Z,9.70
2022-11-15T16:40:22.530Z,9.70
2022-11-15T16:43:09.240Z,9.60
2022-11-15T16:45:55.976Z,9.60
2022-11-15T16:48:42.579Z,9.60
2022-11-15T16:51:29.231Z,9.60
2022-11-15T16:54:16.024Z,9.60
2022-11-15T16:57:02.946Z,9.60
2022-11-15T16:59:49.576Z,9.70
2022-11-15T17:02:36.241Z,9.70
2022-11-15T17:05:27.219Z,9.70
2022-11-15T17:08:13.884Z,9.80
2022-11-15T17:11:00.477Z,9.80
2022-11-15T17:13:48.296Z,9.80
2022-11-15T17:16:35.979Z,10.10
2022-11-15T17:19:22.695Z,9.80
2022-11-15T17:22:09.301Z,9.80
2022-11-15T17:24:55.934Z,9.80
2022-11-15T17:27:42.542Z,9.80
2022-11-15T17:30:29.182Z,9.70
2022-11-15T17:33:15.817Z,9.70
2022-11-15T17:36:03.794Z,9.70
2022-11-15T17:38:58.071Z,9.70
2022-11-15T17:41:46.809Z,9.70
2022-11-15T17:44:33.477Z,9.80
2022-11-15T17:47:20.349Z,9.70
2022-11-15T17:50:07.153Z,9.60
2022-11-15T17:52:53.906Z,9.50
2022-11-15T17:55:40.511Z,9.50
2022-11-15T17:58:27.232Z,9.40
2022-11-15T18:01:24.652Z,9.30
2022-11-15T18:04:14.836Z,9.20
2022-11-15T18:07:01.555Z,9.20
2022-11-15T18:09:48.325Z,9.30
2022-11-15T18:12:35.005Z,9.30
2022-11-15T18:15:21.750Z,9.30
2022-11-15T18:18:08.402Z,9.40
2022-11-15T18:21:05.379Z,9.50
2022-11-15T18:23:56.800Z,9.50
2022-11-15T18:26:43.437Z,9.60
2022-11-15T18:29:30.535Z,9.50
2022-11-15T18:32:17.815Z,9.50
2022-11-15T18:35:04.827Z,9.40
2022-11-15T18:37:53.224Z,9.40
2022-11-15T18:40:39.846Z,9.40
2022-11-15T18:43:28.202Z,9.40
2022-11-15T18:46:15.772Z,9.40
2022-11-15T18:49:04.210Z,9.40
2022-11-15T18:51:50.859Z,9.50
2022-11-15T18:54:39.223Z,9.50
2022-11-15T18:57:25.826Z,9.50
2022-11-15T19:00:14.224Z,9.50
2022-11-15T19:03:00.890Z,9.50
2022-11-15T19:05:49.269Z,9.60
2022-11-15T19:08:36.772Z,9.60
2022-11-15T19:11:27.224Z,9.60
2022-11-15T19:14:15.179Z,9.60
2022-11-15T19:17:03.185Z,9.70
2022-11-15T19:19:49.796Z,9.70
2022-11-15T19:22:38.230Z,9.70
2022-11-15T19:25:28.772Z,9.70
2022-11-15T19:28:17.232Z,9.70
2022-11-15T19:31:05.608Z,9.70
2022-11-15T19:33:54.239Z,9.70
2022-11-15T19:36:42.454Z,9.70
2022-11-15T19:39:30.263Z,9.70
2022-11-15T19:42:16.857Z,9.70
2022-11-15T19:45:05.291Z,9.70
2022-11-15T19:47:51.980Z,9.70
2022-11-15T19:50:40.192Z,9.60
2022-11-15T19:53:29.147Z,9.60
2022-11-15T19:56:21.212Z,9.60
2022-11-15T19:59:08.247Z,9.60
2022-11-15T20:01:56.179Z,9.60
2022-11-15T20:04:42.814Z,9.70
2022-11-15T20:07:31.238Z,9.70
2022-11-15T20:10:20.696Z,9.70
2022-11-15T20:13:08.609Z,9.70
2022-11-15T20:15:55.316Z,9.80
2022-11-15T20:18:42.022Z,9.70
2022-11-15T20:21:28.634Z,9.70
2022-11-15T20:24:16.279Z,9.70
2022-11-15T20:27:02.946Z,9.70
2022-11-15T20:29:51.824Z,9.80
2022-11-15T20:32:38.466Z,9.80
2022-11-15T20:35:26.931Z,9.80
2022-11-15T20:38:13.636Z,9.80
2022-11-15T20:41:00.719Z,9.70
2022-11-15T20:43:47.413Z,9.70
2022-11-15T20:49:39.674Z,9.70
2022-11-15T20:52:26.520Z,9.70
2022-11-15T20:55:13.164Z,9.70
2022-11-15T20:58:00.753Z,9.50
2022-11-15T21:00:47.451Z,9.50
2022-11-15T21:03:34.650Z,9.50
2022-11-15T21:06:21.981Z,9.40
2022-11-15T21:12:32.480Z,9.30
2022-11-15T21:15:19.205Z,9.30
2022-11-15T21:18:06.123Z,9.40
2022-11-15T21:20:53.764Z,9.40
2022-11-15T21:23:40.805Z,9.30
2022-11-15T21:26:27.507Z,9.30
2022-11-15T21:29:17.216Z,9.40
2022-11-15T21:32:07.179Z,9.40
2022-11-15T21:34:54.590Z,9.40
2022-11-15T21:37:41.262Z,9.40
2022-11-15T21:40:27.987Z,9.40
2022-11-15T21:43:14.888Z,9.40
2022-11-15T21:46:05.830Z,9.30
2022-11-15T21:48:52.746Z,9.20
2022-11-15T21:51:39.411Z,9.10
2022-11-15T21:54:26.182Z,9.00
2022-11-15T21:57:12.778Z,8.90
2022-11-15T22:00:18.299Z,8.90
2022-11-15T22:03:04.900Z,8.80
2022-11-15T22:05:51.579Z,8.80
2022-11-15T22:08:38.269Z,8.90
2022-11-15T22:11:25.230Z,8.90
2022-11-15T22:14:12.052Z,8.90
2022-11-15T22:16:58.655Z,9.00
2022-11-15T22:19:52.680Z,8.90
2022-11-15T22:22:39.746Z,8.90
2022-11-15T22:25:26.386Z,8.90
2022-11-15T22:28:13.135Z,8.80
2022-11-15T22:31:00.047Z,8.70
2022-11-15T22:33:46.801Z,8.70
2022-11-15T22:36:52.221Z,8.80
2022-11-15T22:39:41.905Z,8.90
2022-11-15T22:42:28.647Z,8.90
2022-11-15T22:45:15.887Z,8.90
2022-11-15T22:48:02.535Z,9.00
2022-11-15T22:50:50.848Z,9.10
2022-11-15T22:53:37.495Z,9.10
2022-11-15T22:56:24.199Z,9.10
2022-11-15T22:59:10.974Z,9.10
2022-11-15T23:01:57.728Z,9.20
2022-11-15T23:04:44.995Z,9.20
2022-11-15T23:07:32.216Z,9.20
2022-11-15T23:10:37.606Z,9.20
2022-11-15T23:13:25.149Z,9.20
2022-11-15T23:16:25.525Z,9.10
2022-11-15T23:19:12.881Z,9.20
2022-11-15T23:22:18.227Z,9.10
2022-11-15T23:25:05.104Z,9.10
2022-11-15T23:27:51.701Z,9.20
2022-11-15T23:30:57.179Z,9.10
2022-11-15T23:33:59.130Z,9.10
2022-11-15T23:36:45.805Z,9.00
2022-11-15T23:39:32.712Z,8.90
2022-11-15T23:42:24.110Z,8.80
2022-11-15T23:45:11.220Z,8.80
2022-11-15T23:48:01.637Z,8.90
2022-11-15T23:50:48.873Z,8.90
2022-11-15T23:53:37.145Z,8.90
2022-11-15T23:56:24.077Z,9.00
2022-11-15T23:59:12.132Z,9.00
